createdAt,value
2022-09-02T00:02:03.786Z,99.90
2022-09-02T00:07:06.341Z,99.90
2022-09-02T00:12:10.762Z,99.90
2022-09-02T00:17:13.245Z,99.90
2022-09-02T00:22:15.859Z,99.90
2022-09-02T00:27:18.504Z,99.90
2022-09-02T00:32:20.964Z,99.90
2022-09-02T00:37:24.882Z,99.90
2022-09-02T00:42:27.814Z,99.90
2022-09-02T00:47:31.177Z,99.90
2022-09-02T00:53:02.885Z,99.90
2022-09-02T00:58:10.265Z,99.90
2022-09-02T01:03:16.954Z,99.90
2022-09-02T01:08:25.194Z,99.90
2022-09-02T01:13:30.880Z,99.90
2022-09-02T01:18:36.690Z,99.90
2022-09-02T01:23:39.719Z,99.90
2022-09-02T01:28:42.469Z,99.90
2022-09-02T01:33:45.410Z,99.90
2022-09-02T01:38:48.055Z,99.90
2022-09-02T01:43:50.565Z,99.90
2022-09-02T01:48:53.227Z,99.90
2022-09-02T01:53:55.812Z,99.90
2022-09-02T01:58:58.437Z,99.90
2022-09-02T02:04:02.342Z,99.90
2022-09-02T02:09:04.939Z,99.90
2022-09-02T02:14:08.535Z,99.90
2022-09-02T02:19:11.461Z,99.90
2022-09-02T02:24:14.729Z,99.90
2022-09-02T02:29:17.339Z,99.90
2022-09-02T02:34:20.294Z,99.90
2022-09-02T02:39:22.853Z,99.90
2022-09-02T02:44:29.387Z,99.90
2022-09-02T02:49:36.694Z,99.90
2022-09-02T02:54:40.958Z,99.90
2022-09-02T02:59:44.886Z,99.90
2022-09-02T03:04:54.326Z,99.90
2022-09-02T03:10:22.310Z,99.90
2022-09-02T03:15:25.204Z,99.90
2022-09-02T03:20:29.109Z,99.90
2022-09-02T03:25:36.244Z,99.90
2022-09-02T03:30:51.508Z,99.90
2022-09-02T03:35:54.624Z,99.90
2022-09-02T03:40:57.617Z,99.90
2022-09-02T03:46:00.790Z,99.90
2022-09-02T03:51:04.364Z,99.90
2022-09-02T03:56:13.137Z,99.90
2022-09-02T04:01:19.542Z,99.90
2022-09-02T04:06:24.784Z,99.90
2022-09-02T04:11:31.754Z,99.90
2022-09-02T04:16:36.178Z,99.90
2022-09-02T04:21:42.717Z,99.90
2022-09-02T04:26:46.643Z,99.90
2022-09-02T04:31:52.320Z,99.90
2022-09-02T04:36:55.011Z,99.90
2022-09-02T04:41:57.603Z,99.90
2022-09-02T04:47:02.353Z,99.90
2022-09-02T04:52:05.680Z,99.90
2022-09-02T04:57:09.960Z,99.90
2022-09-02T05:02:12.921Z,99.90
2022-09-02T05:07:16.479Z,99.90
2022-09-02T05:12:27.425Z,99.90
2022-09-02T05:17:35.703Z,99.90
2022-09-02T05:22:39.027Z,99.90
2022-09-02T05:27:43.193Z,99.90
2022-09-02T05:32:47.300Z,99.90
2022-09-02T05:37:51.278Z,99.90
2022-09-02T05:42:53.924Z,99.90
2022-09-02T05:47:56.685Z,99.90
2022-09-02T05:53:03.162Z,99.90
2022-09-02T05:58:05.793Z,99.90
2022-09-02T06:03:09.048Z,99.90
2022-09-02T06:08:13.859Z,99.90
2022-09-02T06:13:20.859Z,99.90
2022-09-02T06:18:24.790Z,99.90
2022-09-02T06:23:31.054Z,99.90
2022-09-02T06:28:38.625Z,99.90
2022-09-02T06:33:42.522Z,99.90
2022-09-02T06:38:47.663Z,99.90
2022-09-02T06:43:51.227Z,99.90
2022-09-02T06:48:57.672Z,99.90
2022-09-02T06:54:03.234Z,99.90
2022-09-02T06:59:10.590Z,99.90
2022-09-02T07:04:42.725Z,99.90
2022-09-02T07:09:49.180Z,99.90
2022-09-02T07:14:54.439Z,99.90
2022-09-02T07:20:04.080Z,99.90
2022-09-02T07:25:12.770Z,99.90
2022-09-02T07:30:15.630Z,99.90
2022-09-02T07:35:20.791Z,99.90
2022-09-02T07:40:24.509Z,99.40
2022-09-02T07:45:27.799Z,98.70
2022-09-02T07:50:30.419Z,97.70
2022-09-02T07:55:36.716Z,97.20
2022-09-02T08:00:44.375Z,96.50
2022-09-02T08:05:47.265Z,96.30
2022-09-02T08:10:52.302Z,95.60
2022-09-02T08:15:55.303Z,94.50
2022-09-02T08:20:57.795Z,93.90
2022-09-02T08:26:02.511Z,93.20
2022-09-02T08:31:06.912Z,93.50
2022-09-02T08:36:11.938Z,93.90
2022-09-02T08:41:17.455Z,92.40
2022-09-02T08:46:25.950Z,90.30
2022-09-02T08:51:52.786Z,90.10
2022-09-02T08:56:58.323Z,88.10
2022-09-02T09:02:35.718Z,89.30
2022-09-02T09:07:50.358Z,89.00
2022-09-02T09:13:14.733Z,86.70
2022-09-02T09:18:21.006Z,87.20
2022-09-02T09:23:34.260Z,85.10
2022-09-02T09:28:43.665Z,84.70
2022-09-02T09:34:04.668Z,83.90
2022-09-02T09:39:29.859Z,82.30
2022-09-02T09:44:48.304Z,83.10
2022-09-02T09:49:53.061Z,82.50
2022-09-02T09:55:14.370Z,82.90
2022-09-02T10:00:22.241Z,81.60
2022-09-02T10:05:24.989Z,79.30
2022-09-02T10:10:29.646Z,79.00
2022-09-02T10:15:45.039Z,78.00
2022-09-02T10:21:15.456Z,77.30
2022-09-02T10:26:29.725Z,76.90
2022-09-02T10:31:42.050Z,76.70
2022-09-02T10:37:09.262Z,77.00
2022-09-02T10:42:52.011Z,77.90
2022-09-02T10:48:03.749Z,74.10
2022-09-02T10:53:22.489Z,73.40
2022-09-02T10:58:34.410Z,72.40
2022-09-02T11:04:01.736Z,72.90
2022-09-02T11:09:21.295Z,73.60
2022-09-02T11:14:35.160Z,74.10
2022-09-02T11:19:52.111Z,73.70
2022-09-02T11:25:01.079Z,72.80
2022-09-02T11:30:14.053Z,73.70
2022-09-02T11:35:28.971Z,75.30
2022-09-02T11:47:09.582Z,76.00
2022-09-02T11:57:28.721Z,76.40
2022-09-02T12:02:36.262Z,74.20
2022-09-02T12:07:50.285Z,73.40
2022-09-02T12:12:55.942Z,74.90
2022-09-02T12:18:06.691Z,76.80
2022-09-02T12:23:11.143Z,73.40
2022-09-02T12:28:29.131Z,71.70
2022-09-02T12:33:39.267Z,73.30
2022-09-02T12:38:42.947Z,73.70
2022-09-02T12:44:10.041Z,75.00
2022-09-02T12:49:51.004Z,74.10
2022-09-02T12:54:55.537Z,71.10
2022-09-02T12:59:59.581Z,70.20
2022-09-02T13:05:38.342Z,70.40
2022-09-02T13:10:57.133Z,69.20
2022-09-02T13:15:59.544Z,70.90
2022-09-02T13:21:41.165Z,71.70
2022-09-02T13:27:05.501Z,72.00
2022-09-02T13:32:10.072Z,70.70
2022-09-02T13:37:39.856Z,69.60
2022-09-02T13:42:52.099Z,70.30
2022-09-02T13:47:59.345Z,69.00
2022-09-02T13:58:29.644Z,67.70
2022-09-02T14:03:33.033Z,68.30
2022-09-02T14:08:35.787Z,68.20
2022-09-02T14:13:48.850Z,70.10
2022-09-02T14:19:14.604Z,71.00
2022-09-02T14:24:28.322Z,71.90
2022-09-02T14:29:32.175Z,72.90
2022-09-02T14:34:36.725Z,71.30
2022-09-02T14:40:03.504Z,71.30
2022-09-02T14:45:09.628Z,71.70
2022-09-02T14:50:17.545Z,73.20
2022-09-02T14:55:58.778Z,73.40
2022-09-02T15:01:02.434Z,74.10
2022-09-02T15:06:05.190Z,75.50
2022-09-02T15:11:07.857Z,75.10
2022-09-02T15:16:10.650Z,74.30
2022-09-02T15:21:13.214Z,74.00
2022-09-02T15:26:16.279Z,74.30
2022-09-02T15:31:18.742Z,75.80
2022-09-02T15:36:21.364Z,75.70
2022-09-02T15:41:27.311Z,75.30
2022-09-02T15:46:31.529Z,73.10
2022-09-02T15:51:35.050Z,73.90
2022-09-02T15:56:41.509Z,74.00
2022-09-02T16:01:49.636Z,75.90
2022-09-02T16:06:52.569Z,77.00
2022-09-02T16:11:56.340Z,76.50
2022-09-02T16:16:59.029Z,76.90
2022-09-02T16:22:01.783Z,77.80
2022-09-02T16:27:04.311Z,79.50
2022-09-02T16:37:29.171Z,80.90
2022-09-02T16:42:34.874Z,80.80
2022-09-02T16:47:40.036Z,80.60
2022-09-02T16:52:43.162Z,81.60
2022-09-02T16:57:45.750Z,81.70
2022-09-02T17:02:48.185Z,81.60
2022-09-02T17:07:52.041Z,82.50
2022-09-02T17:12:55.868Z,82.60
2022-09-02T17:17:59.058Z,83.50
2022-09-02T17:23:01.525Z,84.20
2022-09-02T17:28:03.901Z,84.80
2022-09-02T17:33:06.273Z,86.40
2022-09-02T17:38:08.781Z,86.70
2022-09-02T17:43:11.197Z,87.60
2022-09-02T17:48:35.333Z,89.10
2022-09-02T17:53:37.822Z,89.40
2022-09-02T17:59:02.404Z,90.00
2022-09-02T18:04:26.322Z,90.90
2022-09-02T18:09:28.832Z,90.50
2022-09-02T18:14:43.304Z,91.00
2022-09-02T18:20:13.171Z,91.60
2022-09-02T18:25:33.690Z,92.20
2022-09-02T18:31:10.093Z,92.30
2022-09-02T18:36:30.442Z,93.70
2022-09-02T18:41:38.633Z,93.90
2022-09-02T18:47:05.215Z,94.90
2022-09-02T18:52:10.498Z,94.90
2022-09-02T18:57:14.491Z,95.60
2022-09-02T19:02:46.975Z,96.10
2022-09-02T19:08:17.417Z,95.60
2022-09-02T19:13:20.307Z,97.00
2022-09-02T19:18:22.984Z,97.00
2022-09-02T19:23:27.230Z,97.50
2022-09-02T19:28:30.262Z,97.30
2022-09-02T19:33:36.779Z,97.50
2022-09-02T19:38:39.285Z,98.30
2022-09-02T19:43:41.825Z,99.10
2022-09-02T19:48:44.312Z,99.40
2022-09-02T19:53:47.559Z,99.90
2022-09-02T19:58:49.983Z,99.80
2022-09-02T20:03:52.474Z,99.90
2022-09-02T20:08:54.920Z,99.90
2022-09-02T20:13:58.162Z,99.90
2022-09-02T20:19:00.618Z,99.90
2022-09-02T20:24:11.219Z,99.90
2022-09-02T20:29:20.905Z,99.90
2022-09-02T20:34:38.451Z,99.90
2022-09-02T20:40:07.884Z,99.90
2022-09-02T20:45:23.661Z,99.90
2022-09-02T20:50:34.950Z,99.90
2022-09-02T20:56:01.846Z,99.90
2022-09-02T21:01:10.709Z,99.90
2022-09-02T21:06:14.219Z,99.90
2022-09-02T21:11:18.532Z,99.90
2022-09-02T21:16:32.581Z,99.90
2022-09-02T21:21:49.325Z,99.90
2022-09-02T21:27:02.317Z,99.90
2022-09-02T21:32:06.923Z,99.90
2022-09-02T21:37:10.067Z,99.90
2022-09-02T21:42:30.616Z,99.90
2022-09-02T21:47:59.441Z,99.90
2022-09-02T21:53:17.690Z,99.90
2022-09-02T21:58:26.567Z,99.90
2022-09-02T22:03:58.743Z,99.90
2022-09-02T22:09:10.951Z,99.90
2022-09-02T22:14:18.848Z,99.90
2022-09-02T22:19:26.239Z,99.90
2022-09-02T22:24:31.120Z,99.90
2022-09-02T22:30:00.322Z,99.90
2022-09-02T22:35:25.165Z,99.90
2022-09-02T22:40:36.282Z,99.90
2022-09-02T22:46:06.926Z,99.90
2022-09-02T22:51:38.857Z,99.90
2022-09-02T22:56:47.409Z,99.90
2022-09-02T23:02:09.254Z,99.90
2022-09-02T23:07:13.681Z,99.90
2022-09-02T23:12:30.103Z,99.90
2022-09-02T23:18:00.239Z,99.90
2022-09-02T23:23:18.895Z,99.90
2022-09-02T23:28:32.132Z,99.90
2022-09-02T23:33:51.335Z,99.90
2022-09-02T23:39:07.453Z,99.90
2022-09-02T23:44:10.464Z,99.90
2022-09-02T23:49:31.320Z,99.90
2022-09-02T23:54:52.802Z,99.90
